createdAt,value
2017-12-02T00:00:55.156Z,65.22
2017-12-02T00:03:22.673Z,64.92
2017-12-02T00:05:50.199Z,65.27
2017-12-02T00:08:17.787Z,65.58
2017-12-02T00:10:45.317Z,65.02
2017-12-02T00:13:12.823Z,65.36
2017-12-02T00:15:40.621Z,64.72
2017-12-02T00:18:08.176Z,64.83
2017-12-02T00:20:35.696Z,65.03
2017-12-02T00:23:03.270Z,65.94
2017-12-02T00:25:30.795Z,67.02
2017-12-02T00:27:58.330Z,66.18
2017-12-02T00:30:25.903Z,65.80
2017-12-02T00:32:53.449Z,66.13
2017-12-02T00:35:21.009Z,66.47
2017-12-02T00:37:48.567Z,66.89
2017-12-02T00:40:16.082Z,67.40
2017-12-02T00:42:43.607Z,67.69
2017-12-02T00:45:11.294Z,67.37
2017-12-02T00:47:38.814Z,67.65
2017-12-02T00:50:06.363Z,67.09
2017-12-02T00:52:33.924Z,67.33
2017-12-02T00:55:01.480Z,68.05
2017-12-02T00:57:29.003Z,67.63
2017-12-02T00:59:56.908Z,67.39
2017-12-02T01:02:24.466Z,67.02
2017-12-02T01:04:52.078Z,66.82
2017-12-02T01:07:19.636Z,66.55
2017-12-02T01:09:47.154Z,66.44
2017-12-02T01:12:14.703Z,66.24
2017-12-02T01:14:42.287Z,65.97
2017-12-02T01:17:09.798Z,66.35
2017-12-02T01:19:37.323Z,65.73
2017-12-02T01:22:04.942Z,65.98
2017-12-02T01:24:32.498Z,65.67
2017-12-02T01:27:00.058Z,65.60
2017-12-02T01:29:27.718Z,65.98
2017-12-02T01:31:55.231Z,65.80
2017-12-02T01:34:22.763Z,65.84
2017-12-02T01:36:50.478Z,66.14
2017-12-02T01:39:18.366Z,65.90
2017-12-02T01:41:45.906Z,66.02
2017-12-02T01:44:13.586Z,66.27
2017-12-02T01:46:41.100Z,66.13
2017-12-02T01:49:08.618Z,65.72
2017-12-02T01:51:36.468Z,65.67
2017-12-02T01:54:03.983Z,65.64
2017-12-02T01:56:31.505Z,65.63
2017-12-02T01:58:59.081Z,65.35
2017-12-02T02:01:26.603Z,65.31
2017-12-02T02:03:54.160Z,65.10
2017-12-02T02:06:21.851Z,65.14
2017-12-02T02:08:49.370Z,65.25
2017-12-02T02:11:16.894Z,65.28
2017-12-02T02:13:44.603Z,65.30
2017-12-02T02:16:12.162Z,65.16
2017-12-02T02:18:39.675Z,65.10
2017-12-02T02:21:07.484Z,65.26
2017-12-02T02:23:35.044Z,65.12
2017-12-02T02:26:02.605Z,65.18
2017-12-02T02:28:30.351Z,65.37
2017-12-02T02:30:57.876Z,65.34
2017-12-02T02:33:25.406Z,65.31
2017-12-02T02:35:52.961Z,65.65
2017-12-02T02:38:20.483Z,65.59
2017-12-02T02:40:48.010Z,66.26
2017-12-02T02:43:15.730Z,66.64
2017-12-02T02:45:43.254Z,67.18
2017-12-02T02:48:10.778Z,66.51
2017-12-02T02:50:38.327Z,66.43
2017-12-02T02:53:05.850Z,66.56
2017-12-02T02:55:33.370Z,66.79
2017-12-02T02:58:00.976Z,66.20
2017-12-02T03:00:28.534Z,66.74
2017-12-02T03:02:56.195Z,67.19
2017-12-02T03:05:23.804Z,67.02
2017-12-02T03:07:51.331Z,66.67
2017-12-02T03:10:18.874Z,66.52
2017-12-02T03:12:46.682Z,67.25
2017-12-02T03:15:14.199Z,67.04
2017-12-02T03:17:41.758Z,66.67
2017-12-02T03:20:09.704Z,67.13
2017-12-02T03:22:37.283Z,67.44
2017-12-02T03:25:04.843Z,67.46
2017-12-02T03:27:32.790Z,67.00
2017-12-02T03:30:00.307Z,66.29
2017-12-02T03:32:27.822Z,65.91
2017-12-02T03:34:55.790Z,66.27
2017-12-02T03:37:23.356Z,66.34
2017-12-02T03:39:50.914Z,66.32
2017-12-02T03:42:18.554Z,66.27
2017-12-02T03:44:46.133Z,66.49
2017-12-02T03:47:13.799Z,66.13
2017-12-02T03:49:41.661Z,66.08
2017-12-02T03:52:09.259Z,66.21
2017-12-02T03:54:36.803Z,66.14
2017-12-02T03:57:04.606Z,66.21
2017-12-02T03:59:32.205Z,65.96
2017-12-02T04:01:59.717Z,65.97
2017-12-02T04:04:27.631Z,66.02
2017-12-02T04:06:55.195Z,66.42
2017-12-02T04:09:22.750Z,66.08
2017-12-02T04:11:50.513Z,66.26
2017-12-02T04:14:18.071Z,66.47
2017-12-02T04:16:45.590Z,66.51
2017-12-02T04:19:13.191Z,66.79
2017-12-02T04:21:40.749Z,66.55
2017-12-02T04:24:08.274Z,66.62
2017-12-02T04:26:35.868Z,67.00
2017-12-02T04:29:03.385Z,66.59
2017-12-02T04:31:30.903Z,67.09
2017-12-02T04:33:58.500Z,67.51
2017-12-02T04:36:26.027Z,66.66
2017-12-02T04:38:53.560Z,66.46
2017-12-02T04:41:21.298Z,66.86
2017-12-02T04:43:49.292Z,67.89
2017-12-02T04:46:16.807Z,67.41
2017-12-02T04:48:44.355Z,67.64
2017-12-02T04:51:11.866Z,68.03
2017-12-02T04:53:39.374Z,68.00
2017-12-02T04:56:06.922Z,67.46
2017-12-02T04:58:34.443Z,67.29
2017-12-02T05:01:02.330Z,67.13
2017-12-02T05:03:29.896Z,66.97
2017-12-02T05:05:57.419Z,66.87
2017-12-02T05:08:24.990Z,66.37
2017-12-02T05:10:52.546Z,66.34
2017-12-02T05:13:20.106Z,66.42
2017-12-02T05:15:48.074Z,66.45
2017-12-02T05:18:15.818Z,66.39
2017-12-02T05:20:43.342Z,66.81
2017-12-02T05:23:10.869Z,67.51
2017-12-02T05:25:38.618Z,67.41
2017-12-02T05:28:06.136Z,67.22
2017-12-02T05:30:33.736Z,66.95
2017-12-02T05:33:01.601Z,66.87
2017-12-02T05:35:29.161Z,66.87
2017-12-02T05:37:56.720Z,67.58
2017-12-02T05:40:24.291Z,67.50
2017-12-02T05:42:51.814Z,68.01
2017-12-02T05:45:19.334Z,67.60
2017-12-02T05:47:46.905Z,67.67
2017-12-02T05:50:14.422Z,67.01
2017-12-02T05:52:41.980Z,67.52
2017-12-02T05:55:09.556Z,66.83
2017-12-02T05:57:37.078Z,67.42
2017-12-02T06:00:04.677Z,67.60
2017-12-02T06:02:32.229Z,67.71
2017-12-02T06:04:59.768Z,67.86
2017-12-02T06:07:27.326Z,67.55
2017-12-02T06:09:55.070Z,67.31
2017-12-02T06:12:22.599Z,67.51
2017-12-02T06:14:50.986Z,67.92
2017-12-02T06:17:18.705Z,68.36
2017-12-02T06:19:46.249Z,67.61
2017-12-02T06:22:13.770Z,67.83
2017-12-02T06:24:41.319Z,68.26
2017-12-02T06:27:08.852Z,68.82
2017-12-02T06:29:36.373Z,69.52
2017-12-02T06:32:04.146Z,69.19
2017-12-02T06:34:31.666Z,68.12
2017-12-02T06:36:59.199Z,68.47
2017-12-02T06:39:27.050Z,67.86
2017-12-02T06:41:54.571Z,68.60
2017-12-02T06:44:22.197Z,67.96
2017-12-02T06:46:49.777Z,67.68
2017-12-02T06:49:17.294Z,67.01
2017-12-02T06:51:44.826Z,67.47
2017-12-02T06:54:12.521Z,66.73
2017-12-02T06:56:40.037Z,66.24
2017-12-02T06:59:07.550Z,66.70
2017-12-02T07:01:35.097Z,66.94
2017-12-02T07:04:02.621Z,66.67
2017-12-02T07:06:30.142Z,66.31
2017-12-02T07:08:58.027Z,66.48
2017-12-02T07:11:25.559Z,65.62
2017-12-02T07:13:53.086Z,65.48
2017-12-02T07:16:20.742Z,65.87
2017-12-02T07:18:48.326Z,65.31
2017-12-02T07:21:15.840Z,66.56
2017-12-02T07:23:43.426Z,65.63
2017-12-02T07:26:10.942Z,67.84
2017-12-02T07:28:38.466Z,67.59
2017-12-02T07:31:06.113Z,67.99
2017-12-02T07:33:33.621Z,67.52
2017-12-02T07:36:01.147Z,68.68
2017-12-02T07:38:28.783Z,69.04
2017-12-02T07:40:56.300Z,68.25
2017-12-02T07:43:23.815Z,69.77
2017-12-02T07:45:51.519Z,67.74
2017-12-02T07:48:19.046Z,68.05
2017-12-02T07:50:46.566Z,67.28
2017-12-02T07:53:14.716Z,67.31
2017-12-02T07:55:42.252Z,66.19
2017-12-02T07:58:10.763Z,66.45
2017-12-02T08:00:38.428Z,66.77
2017-12-02T08:03:05.942Z,64.97
2017-12-02T08:05:33.500Z,64.81
2017-12-02T08:08:01.194Z,64.76
2017-12-02T08:10:28.718Z,65.26
2017-12-02T08:12:56.233Z,66.07
2017-12-02T08:15:23.938Z,66.39
2017-12-02T08:17:51.465Z,65.35
2017-12-02T08:20:19.002Z,65.87
2017-12-02T08:22:46.578Z,65.12
2017-12-02T08:25:14.150Z,64.02
2017-12-02T08:27:41.661Z,63.43
2017-12-02T08:30:09.554Z,63.51
2017-12-02T08:32:37.102Z,62.72
2017-12-02T08:35:04.688Z,63.37
2017-12-02T08:37:32.301Z,63.72
2017-12-02T08:39:59.882Z,62.66
2017-12-02T08:42:27.402Z,62.09
2017-12-02T08:44:55.309Z,61.77
2017-12-02T08:47:22.830Z,61.31
2017-12-02T08:49:50.355Z,61.04
2017-12-02T08:52:17.903Z,61.31
2017-12-02T08:54:45.475Z,61.72
2017-12-02T08:57:13.101Z,60.83
2017-12-02T08:59:40.732Z,60.65
2017-12-02T09:02:08.423Z,60.11
2017-12-02T09:04:36.067Z,60.27
2017-12-02T09:07:03.965Z,60.37
2017-12-02T09:09:31.570Z,60.06
2017-12-02T09:11:59.108Z,59.42
2017-12-02T09:14:26.939Z,59.47
2017-12-02T09:16:54.619Z,58.77
2017-12-02T09:19:22.364Z,59.37
2017-12-02T09:21:50.331Z,59.02
2017-12-02T09:24:17.905Z,59.56
2017-12-02T09:26:45.449Z,59.20
2017-12-02T09:29:13.018Z,58.93
2017-12-02T09:31:40.773Z,58.54
2017-12-02T09:34:08.327Z,59.28
2017-12-02T09:36:35.894Z,58.53
2017-12-02T09:39:03.468Z,57.99
2017-12-02T09:41:31.015Z,58.93
2017-12-02T09:43:58.899Z,58.13
2017-12-02T09:46:26.765Z,57.47
2017-12-02T09:48:54.350Z,57.85
2017-12-02T09:51:22.290Z,57.69
2017-12-02T09:53:49.828Z,58.97
2017-12-02T09:56:17.381Z,58.51
2017-12-02T09:58:44.991Z,58.95
2017-12-02T10:01:12.712Z,59.32
2017-12-02T10:03:40.496Z,58.96
2017-12-02T10:06:08.359Z,59.39
2017-12-02T10:08:35.894Z,59.77
2017-12-02T10:11:03.481Z,59.38
2017-12-02T10:13:31.082Z,58.90
2017-12-02T10:15:58.598Z,57.18
2017-12-02T10:18:26.154Z,58.08
2017-12-02T10:20:53.727Z,58.82
2017-12-02T10:23:21.362Z,58.29
2017-12-02T10:25:48.915Z,59.14
2017-12-02T10:28:16.662Z,58.47
2017-12-02T10:30:44.198Z,59.07
2017-12-02T10:33:11.902Z,59.04
2017-12-02T10:35:39.786Z,59.18
2017-12-02T10:38:07.637Z,59.49
2017-12-02T10:40:35.241Z,59.27
2017-12-02T10:43:03.133Z,58.50
2017-12-02T10:45:30.866Z,57.95
2017-12-02T10:47:58.736Z,58.30
2017-12-02T10:50:26.898Z,58.00
2017-12-02T10:52:55.624Z,58.01
2017-12-02T10:55:23.517Z,57.33
2017-12-02T10:57:51.997Z,57.14
2017-12-02T11:00:19.994Z,57.55
2017-12-02T11:02:47.882Z,57.90
2017-12-02T11:05:16.006Z,57.20
2017-12-02T11:07:43.623Z,57.43
2017-12-02T11:10:11.204Z,56.96
2017-12-02T11:12:39.292Z,57.92
2017-12-02T11:15:06.857Z,57.33
2017-12-02T11:17:34.638Z,57.77
2017-12-02T11:20:03.518Z,58.18
2017-12-02T11:22:31.135Z,58.06
2017-12-02T11:24:58.753Z,57.65
2017-12-02T11:27:26.495Z,57.62
2017-12-02T11:29:54.055Z,58.04
2017-12-02T11:32:21.573Z,59.30
2017-12-02T11:34:49.489Z,57.92
2017-12-02T11:37:17.043Z,57.82
2017-12-02T11:39:44.604Z,58.32
2017-12-02T11:42:12.350Z,58.75
2017-12-02T11:44:39.871Z,57.98
2017-12-02T11:47:07.583Z,57.80
2017-12-02T11:49:35.141Z,58.78
2017-12-02T11:52:02.704Z,58.42
2017-12-02T11:54:30.260Z,58.05
2017-12-02T11:56:57.954Z,58.23
2017-12-02T11:59:25.481Z,58.23
2017-12-02T12:01:53.039Z,57.51
2017-12-02T12:04:20.804Z,57.64
2017-12-02T12:06:48.365Z,57.79
2017-12-02T12:09:15.925Z,57.26
2017-12-02T12:11:43.622Z,57.23
2017-12-02T12:14:11.190Z,57.91
2017-12-02T12:16:38.713Z,58.27
2017-12-02T12:19:06.294Z,57.61
2017-12-02T12:21:34.082Z,56.09
2017-12-02T12:24:01.688Z,56.41
2017-12-02T12:26:29.348Z,56.63
2017-12-02T12:28:56.866Z,56.54
2017-12-02T12:31:24.741Z,56.30
2017-12-02T12:33:52.333Z,56.52
2017-12-02T12:36:19.860Z,56.50
2017-12-02T12:38:47.378Z,55.57
2017-12-02T12:41:15.094Z,56.08
2017-12-02T12:43:42.614Z,56.23
2017-12-02T12:46:10.128Z,55.28
2017-12-02T12:48:37.993Z,56.12
2017-12-02T12:51:05.552Z,56.14
2017-12-02T12:53:33.116Z,55.31
2017-12-02T12:56:00.866Z,55.13
2017-12-02T12:58:28.378Z,55.74
2017-12-02T13:00:56.108Z,56.13
2017-12-02T13:03:23.838Z,55.94
2017-12-02T13:05:51.357Z,55.81
2017-12-02T13:08:18.926Z,55.99
2017-12-02T13:10:46.539Z,55.29
2017-12-02T13:13:14.097Z,55.03
2017-12-02T13:15:41.622Z,55.45
2017-12-02T13:18:09.214Z,55.10
2017-12-02T13:20:36.978Z,55.93
2017-12-02T13:23:04.510Z,55.23
2017-12-02T13:25:32.609Z,55.73
2017-12-02T13:28:00.157Z,55.96
2017-12-02T13:30:27.674Z,56.20
2017-12-02T13:32:55.225Z,56.12
2017-12-02T13:35:23.050Z,56.36
2017-12-02T13:37:50.574Z,56.39
2017-12-02T13:40:18.460Z,55.49
2017-12-02T13:42:46.118Z,54.78
2017-12-02T13:45:13.692Z,54.68
2017-12-02T13:47:41.386Z,55.28
2017-12-02T13:50:08.920Z,55.57
2017-12-02T13:52:36.884Z,57.29
2017-12-02T13:55:04.547Z,57.78
2017-12-02T13:57:32.160Z,57.67
2017-12-02T13:59:59.662Z,57.70
2017-12-02T14:02:27.474Z,59.13
2017-12-02T14:04:55.036Z,58.71
2017-12-02T14:07:22.550Z,58.68
2017-12-02T14:09:50.244Z,58.99
2017-12-02T14:12:18.687Z,58.89
2017-12-02T14:14:46.245Z,58.79
2017-12-02T14:17:14.985Z,58.55
2017-12-02T14:19:43.825Z,58.40
2017-12-02T14:22:11.382Z,58.51
2017-12-02T14:24:39.759Z,58.60
2017-12-02T14:27:07.311Z,58.48
2017-12-02T14:29:34.979Z,58.26
2017-12-02T14:32:03.579Z,58.75
2017-12-02T14:34:31.123Z,58.33
2017-12-02T14:36:58.783Z,58.53
2017-12-02T14:39:26.447Z,59.19
2017-12-02T14:41:54.955Z,58.48
2017-12-02T14:44:22.466Z,59.07
2017-12-02T14:46:50.232Z,59.25
2017-12-02T14:49:17.759Z,61.06
2017-12-02T14:51:45.984Z,60.17
2017-12-02T14:54:14.089Z,59.74
2017-12-02T14:56:42.252Z,59.67
2017-12-02T14:59:09.817Z,60.22
2017-12-02T15:01:37.715Z,60.32
2017-12-02T15:04:05.345Z,60.35
2017-12-02T15:06:32.871Z,60.21
2017-12-02T15:09:01.590Z,60.34
2017-12-02T15:11:29.129Z,60.13
2017-12-02T15:13:56.982Z,60.41
2017-12-02T15:16:25.694Z,60.49
2017-12-02T15:18:53.534Z,60.56
2017-12-02T15:21:21.299Z,60.56
2017-12-02T15:23:49.369Z,61.31
2017-12-02T15:26:17.030Z,60.69
2017-12-02T15:28:45.726Z,60.92
2017-12-02T15:31:13.971Z,61.12
2017-12-02T15:33:41.801Z,60.96
2017-12-02T15:36:11.894Z,61.24
2017-12-02T15:38:41.203Z,61.25
2017-12-02T15:41:09.249Z,61.03
2017-12-02T15:43:37.981Z,61.29
2017-12-02T15:46:07.454Z,61.72
2017-12-02T15:48:36.022Z,61.05
2017-12-02T15:51:04.603Z,60.92
2017-12-02T15:53:32.572Z,61.19
2017-12-02T15:56:00.337Z,60.76
2017-12-02T15:58:28.099Z,60.98
2017-12-02T16:00:58.033Z,60.96
2017-12-02T16:03:25.858Z,61.11
2017-12-02T16:05:53.562Z,61.35
2017-12-02T16:08:21.236Z,61.04
2017-12-02T16:10:48.971Z,60.82
2017-12-02T16:13:17.461Z,61.81
2017-12-02T16:15:45.018Z,61.66
2017-12-02T16:18:12.615Z,62.46
2017-12-02T16:20:40.162Z,62.09
2017-12-02T16:23:07.742Z,61.19
2017-12-02T16:25:35.347Z,61.01
2017-12-02T16:28:03.009Z,61.67
2017-12-02T16:30:30.976Z,61.34
2017-12-02T16:32:58.486Z,61.39
2017-12-02T16:35:26.015Z,61.10
2017-12-02T16:37:53.565Z,60.81
2017-12-02T16:40:21.112Z,60.61
2017-12-02T16:42:48.669Z,60.99
2017-12-02T16:45:16.238Z,61.02
2017-12-02T16:47:43.782Z,61.19
2017-12-02T16:50:11.398Z,61.66
2017-12-02T16:52:39.213Z,61.53
2017-12-02T16:55:06.739Z,61.37
2017-12-02T16:57:34.282Z,61.94
2017-12-02T17:00:02.073Z,61.41
2017-12-02T17:02:29.635Z,61.41
2017-12-02T17:04:57.154Z,61.63
2017-12-02T17:07:24.775Z,61.88
2017-12-02T17:09:52.336Z,61.25
2017-12-02T17:12:19.898Z,61.50
2017-12-02T17:14:47.633Z,61.29
2017-12-02T17:17:15.214Z,62.15
2017-12-02T17:19:42.725Z,62.40
2017-12-02T17:22:10.411Z,62.25
2017-12-02T17:24:37.963Z,62.76
2017-12-02T17:27:05.548Z,62.63
2017-12-02T17:29:33.294Z,62.48
2017-12-02T17:32:00.810Z,62.09
2017-12-02T17:34:28.351Z,61.78
2017-12-02T17:36:56.010Z,61.37
2017-12-02T17:39:23.555Z,60.82
2017-12-02T17:41:51.112Z,61.40
2017-12-02T17:44:18.858Z,60.96
2017-12-02T17:46:46.435Z,61.71
2017-12-02T17:49:13.995Z,61.37
2017-12-02T17:51:41.942Z,61.36
2017-12-02T17:54:09.461Z,61.06
2017-12-02T17:56:37.036Z,61.10
2017-12-02T17:59:04.646Z,60.67
2017-12-02T18:01:32.226Z,60.66
2017-12-02T18:04:00.016Z,60.11
2017-12-02T18:06:27.951Z,59.97
2017-12-02T18:08:55.552Z,60.41
2017-12-02T18:11:23.150Z,60.33
2017-12-02T18:13:50.834Z,59.95
2017-12-02T18:16:18.477Z,60.30
2017-12-02T18:18:46.105Z,60.58
2017-12-02T18:21:13.696Z,59.69
2017-12-02T18:23:41.268Z,60.25
2017-12-02T18:26:09.651Z,59.89
2017-12-02T18:28:37.818Z,59.42
2017-12-02T18:31:05.374Z,59.37
2017-12-02T18:33:33.131Z,59.42
2017-12-02T18:36:01.425Z,58.88
2017-12-02T18:38:29.162Z,58.41
2017-12-02T18:40:56.877Z,58.97
2017-12-02T18:43:24.759Z,58.92
2017-12-02T18:45:52.752Z,59.19
2017-12-02T18:48:20.319Z,59.26
2017-12-02T18:50:48.400Z,59.32
2017-12-02T18:53:18.034Z,58.93
2017-12-02T18:55:45.570Z,58.99
2017-12-02T18:58:13.537Z,59.19
2017-12-02T19:00:41.912Z,58.95
2017-12-02T19:03:09.614Z,59.66
2017-12-02T19:05:37.815Z,59.53
2017-12-02T19:08:05.353Z,59.60
2017-12-02T19:10:32.910Z,59.83
2017-12-02T19:13:01.636Z,59.75
2017-12-02T19:15:29.390Z,60.42
2017-12-02T19:17:58.306Z,60.45
2017-12-02T19:20:27.607Z,60.39
2017-12-02T19:22:55.389Z,60.07
2017-12-02T19:25:23.647Z,60.14
2017-12-02T19:27:51.238Z,60.20
2017-12-02T19:30:18.970Z,60.71
2017-12-02T19:32:46.765Z,60.90
2017-12-02T19:35:14.599Z,61.27
2017-12-02T19:37:43.185Z,61.88
2017-12-02T19:40:11.743Z,61.45
2017-12-02T19:42:39.644Z,61.59
2017-12-02T19:45:07.499Z,61.62
2017-12-02T19:47:36.084Z,61.61
2017-12-02T19:50:04.703Z,61.63
2017-12-02T19:52:34.581Z,61.94
2017-12-02T19:55:02.196Z,62.17
2017-12-02T19:57:30.575Z,61.97
2017-12-02T19:59:58.240Z,62.72
2017-12-02T20:02:26.273Z,62.47
2017-12-02T20:04:54.442Z,62.93
2017-12-02T20:07:22.901Z,62.19
2017-12-02T20:09:51.488Z,62.47
2017-12-02T20:12:20.699Z,62.68
2017-12-02T20:14:48.624Z,62.39
2017-12-02T20:17:16.517Z,62.33
2017-12-02T20:19:45.310Z,62.65
2017-12-02T20:22:13.076Z,62.44
2017-12-02T20:24:42.121Z,62.00
2017-12-02T20:27:10.444Z,62.09
2017-12-02T20:29:38.311Z,63.45
2017-12-02T20:32:06.028Z,63.21
2017-12-02T20:34:34.178Z,63.01
2017-12-02T20:37:01.910Z,62.45
2017-12-02T20:39:29.572Z,62.39
2017-12-02T20:41:57.659Z,62.40
2017-12-02T20:44:25.718Z,62.36
2017-12-02T20:46:53.589Z,62.31
2017-12-02T20:49:21.671Z,62.32
2017-12-02T20:51:49.516Z,62.11
2017-12-02T20:54:18.370Z,61.74
2017-12-02T20:56:46.274Z,61.57
2017-12-02T20:59:14.847Z,61.01
2017-12-02T21:01:42.638Z,61.14
2017-12-02T21:04:10.654Z,61.46
2017-12-02T21:06:38.456Z,61.66
2017-12-02T21:09:06.300Z,61.58
2017-12-02T21:11:34.780Z,61.52
2017-12-02T21:14:02.822Z,61.96
2017-12-02T21:16:30.639Z,62.79
2017-12-02T21:18:58.317Z,62.13
2017-12-02T21:21:26.085Z,62.29
2017-12-02T21:23:53.930Z,62.06
2017-12-02T21:26:21.898Z,61.76
2017-12-02T21:28:49.572Z,62.18
2017-12-02T21:31:17.307Z,61.45
2017-12-02T21:33:46.126Z,61.42
2017-12-02T21:36:14.839Z,61.74
2017-12-02T21:38:42.460Z,61.60
2017-12-02T21:41:10.098Z,62.28
2017-12-02T21:43:37.884Z,62.55
2017-12-02T21:46:05.653Z,61.99
2017-12-02T21:48:33.498Z,62.41
2017-12-02T21:51:01.074Z,62.49
2017-12-02T21:53:28.838Z,62.56
2017-12-02T21:55:56.501Z,62.98
2017-12-02T21:58:24.468Z,62.72
2017-12-02T22:00:52.027Z,62.61
2017-12-02T22:03:19.985Z,62.82
2017-12-02T22:05:47.623Z,62.68
2017-12-02T22:08:15.320Z,63.02
2017-12-02T22:10:43.087Z,62.92
2017-12-02T22:13:10.862Z,62.28
2017-12-02T22:15:38.620Z,62.45
2017-12-02T22:18:06.376Z,62.01
2017-12-02T22:20:34.549Z,61.63
2017-12-02T22:23:02.117Z,61.32
2017-12-02T22:25:29.871Z,61.15
2017-12-02T22:27:57.652Z,61.14
2017-12-02T22:30:25.502Z,62.00
2017-12-02T22:32:53.730Z,63.21
2017-12-02T22:35:21.295Z,62.40
2017-12-02T22:37:50.227Z,62.43
2017-12-02T22:40:18.016Z,62.92
2017-12-02T22:42:45.980Z,62.00
2017-12-02T22:45:13.929Z,62.03
2017-12-02T22:47:41.684Z,62.08
2017-12-02T22:50:09.473Z,62.09
2017-12-02T22:52:38.664Z,62.06
2017-12-02T22:55:07.449Z,61.98
2017-12-02T22:57:36.129Z,61.86
2017-12-02T23:00:03.718Z,61.54
2017-12-02T23:02:31.624Z,62.04
2017-12-02T23:04:59.438Z,62.01
2017-12-02T23:07:27.734Z,61.75
2017-12-02T23:09:55.483Z,61.69
2017-12-02T23:12:23.058Z,61.32
2017-12-02T23:14:50.592Z,61.18
2017-12-02T23:17:18.427Z,61.63
2017-12-02T23:19:46.942Z,61.15
2017-12-02T23:22:14.572Z,61.44
2017-12-02T23:24:43.359Z,61.11
2017-12-02T23:27:11.868Z,61.31
2017-12-02T23:29:40.446Z,61.35
2017-12-02T23:32:08.049Z,61.10
2017-12-02T23:34:35.730Z,61.01
2017-12-02T23:37:03.343Z,60.99
2017-12-02T23:39:31.271Z,61.07
2017-12-02T23:41:58.782Z,61.30
2017-12-02T23:44:26.333Z,60.72
2017-12-02T23:46:54.171Z,60.76
2017-12-02T23:49:21.765Z,60.65
2017-12-02T23:51:49.301Z,60.94
2017-12-02T23:54:17.054Z,61.36
2017-12-02T23:56:44.613Z,61.46
2017-12-02T23:59:12.194Z,61.54
